createdAt,value
2017-12-21T00:00:40.559Z,0.0
2017-12-21T00:01:40.626Z,0.0
2017-12-21T00:02:40.758Z,0.0
2017-12-21T00:03:40.819Z,0.0
2017-12-21T00:04:40.788Z,0.0
2017-12-21T00:05:40.779Z,0.0
2017-12-21T00:06:40.583Z,0.0
2017-12-21T00:07:40.865Z,0.0
2017-12-21T00:08:40.918Z,0.0
2017-12-21T00:09:40.779Z,0.0
2017-12-21T00:10:40.760Z,0.0
2017-12-21T00:11:40.832Z,0.0
2017-12-21T00:12:41.052Z,0.0
2017-12-21T00:13:41.101Z,0.0
2017-12-21T00:14:40.608Z,0.0
2017-12-21T00:15:41.093Z,0.0
2017-12-21T00:16:40.820Z,0.0
2017-12-21T00:17:40.813Z,0.0
2017-12-21T00:18:40.806Z,0.0
2017-12-21T00:19:40.819Z,0.0
2017-12-21T00:20:40.850Z,0.0
2017-12-21T00:21:40.838Z,0.0
2017-12-21T00:22:40.646Z,0.0
2017-12-21T00:23:40.852Z,0.0
2017-12-21T00:24:40.867Z,0.0
2017-12-21T00:25:40.579Z,0.0
2017-12-21T00:26:40.803Z,0.0
2017-12-21T00:27:40.880Z,0.0
2017-12-21T00:28:40.794Z,0.0
2017-12-21T00:29:40.626Z,0.0
2017-12-21T00:30:40.878Z,0.0
2017-12-21T00:31:41.111Z,0.0
2017-12-21T00:32:40.819Z,0.0
2017-12-21T00:33:40.856Z,0.0
2017-12-21T00:34:40.848Z,0.0
2017-12-21T00:35:40.868Z,0.0
2017-12-21T00:36:40.832Z,0.0
2017-12-21T00:37:40.621Z,0.0
2017-12-21T00:38:41.136Z,0.0
2017-12-21T00:39:41.079Z,0.0
2017-12-21T00:40:41.088Z,0.0
2017-12-21T00:41:40.825Z,0.0
2017-12-21T00:42:40.633Z,0.0
2017-12-21T00:43:40.671Z,0.0
2017-12-21T00:44:40.855Z,0.0
2017-12-21T00:45:40.988Z,0.0
2017-12-21T00:46:40.627Z,0.0
2017-12-21T00:47:40.636Z,0.0
2017-12-21T00:48:41.130Z,0.0
2017-12-21T00:49:41.150Z,0.0
2017-12-21T00:50:40.860Z,0.0
2017-12-21T00:51:41.106Z,0.0
2017-12-21T00:52:41.468Z,0.0
2017-12-21T00:53:41.129Z,0.0
2017-12-21T00:54:41.192Z,0.0
2017-12-21T00:55:40.688Z,0.0
2017-12-21T00:56:40.881Z,0.0
2017-12-21T00:57:40.913Z,0.0
2017-12-21T00:58:40.893Z,0.0
2017-12-21T00:59:40.903Z,0.0
2017-12-21T01:00:41.185Z,0.0
2017-12-21T01:01:40.922Z,0.0
2017-12-21T01:02:40.687Z,0.0
2017-12-21T01:03:41.203Z,0.0
2017-12-21T01:04:40.957Z,0.0
2017-12-21T01:05:40.865Z,0.0
2017-12-21T01:06:40.890Z,0.0
2017-12-21T01:07:40.670Z,0.0
2017-12-21T01:08:40.903Z,0.0
2017-12-21T01:09:40.701Z,0.0
2017-12-21T01:10:40.821Z,0.0
2017-12-21T01:11:40.902Z,0.0
2017-12-21T01:12:40.713Z,0.0
2017-12-21T01:13:41.177Z,0.0
2017-12-21T01:14:41.184Z,0.0
2017-12-21T01:15:40.943Z,0.0
2017-12-21T01:16:41.249Z,0.0
2017-12-21T01:17:41.247Z,0.0
2017-12-21T01:18:41.005Z,0.0
2017-12-21T01:19:40.930Z,0.0
2017-12-21T01:20:40.947Z,0.0
2017-12-21T01:21:40.963Z,0.2
2017-12-21T01:22:41.303Z,0.2
2017-12-21T01:23:40.735Z,0.2
2017-12-21T01:24:40.755Z,0.2
2017-12-21T01:25:40.792Z,0.2
2017-12-21T01:26:41.014Z,0.8
2017-12-21T01:27:40.949Z,0.8
2017-12-21T01:28:40.982Z,0.8
2017-12-21T01:29:40.956Z,0.2
2017-12-21T01:30:40.948Z,0.2
2017-12-21T01:31:40.777Z,0.0
2017-12-21T01:32:40.759Z,0.0
2017-12-21T01:33:40.725Z,0.0
2017-12-21T01:34:41.258Z,0.2
2017-12-21T01:35:40.966Z,0.2
2017-12-21T01:36:41.236Z,0.2
2017-12-21T01:37:41.246Z,0.2
2017-12-21T01:38:40.949Z,0.2
2017-12-21T01:39:40.969Z,0.0
2017-12-21T01:42:41.277Z,0.0
2017-12-21T01:43:40.993Z,0.0
2017-12-21T01:44:40.970Z,0.2
2017-12-21T01:45:41.023Z,0.2
2017-12-21T01:46:40.958Z,1.1
2017-12-21T01:47:41.013Z,1.1
2017-12-21T01:48:41.028Z,1.1
2017-12-21T01:49:40.997Z,1.3
2017-12-21T01:50:41.943Z,1.3
2017-12-21T01:51:41.258Z,5.8
2017-12-21T01:52:41.011Z,5.8
2017-12-21T01:53:41.334Z,5.8
2017-12-21T01:54:40.724Z,0.2
2017-12-21T01:55:40.983Z,0.2
2017-12-21T01:56:40.770Z,0.0
2017-12-21T01:57:41.235Z,0.0
2017-12-21T01:58:41.003Z,0.0
2017-12-21T01:59:41.166Z,0.0
2017-12-21T02:00:40.777Z,0.0
2017-12-21T02:03:40.995Z,0.0
2017-12-21T02:04:41.017Z,0.0
2017-12-21T02:05:41.034Z,0.0
2017-12-21T02:06:41.049Z,0.0
2017-12-21T02:07:41.026Z,0.0
2017-12-21T02:08:41.040Z,0.0
2017-12-21T02:09:41.090Z,0.2
2017-12-21T02:10:41.032Z,0.2
2017-12-21T02:11:41.017Z,0.2
2017-12-21T02:12:41.053Z,1.1
2017-12-21T02:13:41.044Z,1.1
2017-12-21T02:14:40.824Z,0.2
2017-12-21T02:15:40.808Z,0.2
2017-12-21T02:16:41.005Z,0.2
2017-12-21T02:17:41.312Z,0.0
2017-12-21T02:18:41.098Z,0.0
2017-12-21T02:19:41.069Z,0.0
2017-12-21T02:20:41.091Z,0.0
2017-12-21T02:21:40.836Z,0.0
2017-12-21T02:22:41.072Z,0.0
2017-12-21T02:23:41.047Z,0.0
2017-12-21T02:24:41.920Z,0.0
2017-12-21T02:25:41.319Z,0.0
2017-12-21T02:26:41.124Z,0.0
2017-12-21T02:27:40.892Z,0.5
2017-12-21T02:28:41.047Z,0.5
2017-12-21T02:29:41.074Z,0.5
2017-12-21T02:30:40.805Z,1.6
2017-12-21T02:31:41.070Z,1.6
2017-12-21T02:32:40.859Z,0.2
2017-12-21T02:33:40.876Z,0.2
2017-12-21T02:34:41.338Z,0.2
2017-12-21T02:35:41.050Z,0.0
2017-12-21T02:36:41.166Z,0.0
2017-12-21T02:37:41.078Z,0.0
2017-12-21T02:38:41.070Z,0.0
2017-12-21T02:39:41.088Z,0.0
2017-12-21T02:40:41.082Z,0.0
2017-12-21T02:41:40.920Z,0.0
2017-12-21T02:42:40.838Z,0.0
2017-12-21T02:43:41.123Z,0.0
2017-12-21T02:44:40.859Z,0.0
2017-12-21T02:46:41.090Z,0.0
2017-12-21T02:47:41.911Z,0.2
2017-12-21T02:48:41.380Z,0.2
2017-12-21T02:49:41.110Z,0.2
2017-12-21T02:50:40.842Z,0.0
2017-12-21T02:51:41.411Z,0.0
2017-12-21T02:52:41.098Z,0.0
2017-12-21T02:53:41.987Z,0.0
2017-12-21T02:54:40.887Z,0.0
2017-12-21T02:55:41.168Z,0.2
2017-12-21T02:56:41.153Z,0.2
2017-12-21T02:57:41.378Z,0.0
2017-12-21T02:58:40.923Z,0.0
2017-12-21T02:59:41.185Z,0.0
2017-12-21T03:00:41.142Z,0.5
2017-12-21T03:01:41.186Z,0.5
2017-12-21T03:02:40.908Z,0.5
2017-12-21T03:03:41.165Z,0.8
2017-12-21T03:04:41.104Z,0.8
2017-12-21T03:05:41.167Z,1.1
2017-12-21T03:06:41.366Z,1.1
2017-12-21T03:08:40.895Z,0.0
2017-12-21T03:09:41.452Z,0.0
2017-12-21T03:11:41.172Z,0.0
2017-12-21T03:12:41.125Z,0.0
2017-12-21T03:14:40.966Z,0.0
2017-12-21T03:15:40.997Z,0.0
2017-12-21T03:16:40.921Z,0.0
2017-12-21T03:17:41.007Z,0.0
2017-12-21T03:18:41.112Z,0.0
2017-12-21T03:19:41.255Z,0.0
2017-12-21T03:20:40.925Z,0.0
2017-12-21T03:21:41.013Z,0.0
2017-12-21T03:22:40.949Z,0.0
2017-12-21T03:23:41.190Z,0.0
2017-12-21T03:24:41.188Z,0.0
2017-12-21T03:25:41.213Z,0.0
2017-12-21T03:26:40.931Z,0.0
2017-12-21T03:27:40.980Z,0.0
2017-12-21T03:28:41.171Z,0.0
2017-12-21T03:29:41.870Z,0.0
2017-12-21T03:30:41.206Z,0.0
2017-12-21T03:31:40.973Z,0.0
2017-12-21T03:32:40.984Z,0.0
2017-12-21T03:33:41.456Z,0.0
2017-12-21T03:34:40.970Z,0.0
2017-12-21T03:35:41.157Z,0.0
2017-12-21T03:36:41.177Z,0.2
2017-12-21T03:37:41.471Z,0.2
2017-12-21T03:39:41.204Z,0.2
2017-12-21T03:40:41.439Z,0.2
2017-12-21T03:41:40.970Z,0.0
2017-12-21T03:42:40.967Z,0.0
2017-12-21T03:43:40.991Z,0.0
2017-12-21T03:44:41.490Z,0.0
2017-12-21T03:45:41.208Z,0.0
2017-12-21T03:46:41.510Z,0.0
2017-12-21T03:47:41.174Z,0.0
2017-12-21T03:48:40.983Z,0.0
2017-12-21T03:49:41.236Z,0.0
2017-12-21T03:50:41.275Z,0.0
2017-12-21T03:51:41.206Z,0.0
2017-12-21T03:52:40.984Z,0.0
2017-12-21T03:53:41.206Z,0.0
2017-12-21T03:54:41.212Z,0.0
2017-12-21T03:55:42.092Z,0.0
2017-12-21T03:56:40.980Z,0.0
2017-12-21T03:57:40.986Z,0.0
2017-12-21T03:58:41.179Z,0.2
2017-12-21T03:59:41.249Z,0.2
2017-12-21T04:00:41.203Z,0.2
2017-12-21T04:01:42.259Z,0.0
2017-12-21T04:02:41.480Z,0.0
2017-12-21T04:03:41.593Z,0.0
2017-12-21T04:04:41.234Z,0.2
2017-12-21T04:05:40.963Z,0.2
2017-12-21T04:06:40.971Z,0.2
2017-12-21T04:07:40.962Z,0.2
2017-12-21T04:08:41.234Z,0.2
2017-12-21T04:09:41.008Z,0.2
2017-12-21T04:10:41.498Z,0.2
2017-12-21T04:11:40.999Z,0.0
2017-12-21T04:13:41.108Z,0.0
2017-12-21T04:14:41.532Z,0.2
2017-12-21T04:15:41.006Z,0.2
2017-12-21T04:16:41.051Z,0.2
2017-12-21T04:17:41.229Z,0.2
2017-12-21T04:18:41.534Z,0.2
2017-12-21T04:21:41.516Z,0.0
2017-12-21T04:22:41.273Z,0.0
2017-12-21T04:23:41.285Z,0.0
2017-12-21T04:24:41.536Z,0.0
2017-12-21T04:25:42.079Z,0.0
2017-12-21T04:26:40.989Z,0.0
2017-12-21T04:27:41.187Z,0.0
2017-12-21T04:28:41.068Z,0.0
2017-12-21T04:29:41.252Z,0.0
2017-12-21T04:30:41.295Z,0.0
2017-12-21T04:31:41.481Z,0.0
2017-12-21T04:32:41.032Z,0.0
2017-12-21T04:33:41.242Z,0.0
2017-12-21T04:34:41.265Z,0.0
2017-12-21T04:35:41.562Z,0.0
2017-12-21T04:36:41.556Z,0.0
2017-12-21T04:37:41.256Z,0.0
2017-12-21T04:38:41.063Z,0.0
2017-12-21T04:39:41.293Z,0.0
2017-12-21T04:40:41.095Z,0.0
2017-12-21T04:41:41.633Z,0.0
2017-12-21T04:42:41.084Z,0.0
2017-12-21T04:43:41.117Z,0.0
2017-12-21T04:44:41.080Z,0.0
2017-12-21T04:45:41.586Z,0.0
2017-12-21T04:46:41.314Z,0.0
2017-12-21T04:47:41.320Z,0.0
2017-12-21T04:48:41.080Z,0.0
2017-12-21T04:49:41.539Z,0.0
2017-12-21T04:50:41.269Z,0.0
2017-12-21T04:51:41.543Z,0.0
2017-12-21T04:52:41.303Z,0.0
2017-12-21T04:53:41.313Z,0.0
2017-12-21T04:54:42.177Z,0.0
2017-12-21T04:55:41.330Z,0.0
2017-12-21T04:56:41.158Z,0.0
2017-12-21T04:57:41.364Z,0.0
2017-12-21T04:58:41.056Z,0.0
2017-12-21T04:59:41.591Z,0.0
2017-12-21T05:00:41.597Z,0.0
2017-12-21T05:01:41.339Z,0.0
2017-12-21T05:02:41.591Z,0.0
2017-12-21T05:03:41.382Z,0.0
2017-12-21T05:04:41.469Z,0.0
2017-12-21T05:05:41.122Z,0.0
2017-12-21T05:06:41.343Z,0.0
2017-12-21T05:07:41.174Z,0.0
2017-12-21T05:08:41.199Z,0.0
2017-12-21T05:09:41.375Z,0.0
2017-12-21T05:10:41.124Z,0.0
2017-12-21T05:11:41.291Z,0.0
2017-12-21T05:12:41.593Z,0.0
2017-12-21T05:13:41.448Z,0.0
2017-12-21T05:15:41.613Z,0.0
2017-12-21T05:16:41.365Z,0.0
2017-12-21T05:17:41.343Z,0.0
2017-12-21T05:18:41.377Z,0.0
2017-12-21T05:20:41.625Z,0.0
2017-12-21T05:21:41.350Z,0.0
2017-12-21T05:22:41.653Z,0.0
2017-12-21T05:24:41.470Z,0.0
2017-12-21T05:26:41.384Z,0.0
2017-12-21T05:27:41.644Z,0.0
2017-12-21T05:28:41.702Z,0.0
2017-12-21T05:29:41.388Z,0.0
2017-12-21T05:30:41.199Z,0.0
2017-12-21T05:33:41.370Z,0.0
2017-12-21T05:34:41.184Z,0.0
2017-12-21T05:35:41.426Z,0.0
2017-12-21T05:36:41.613Z,0.0
2017-12-21T05:37:41.609Z,0.0
2017-12-21T05:39:41.207Z,0.0
2017-12-21T05:40:41.375Z,0.0
2017-12-21T05:41:41.981Z,0.0
2017-12-21T05:42:41.350Z,0.0
2017-12-21T05:43:41.428Z,0.0
2017-12-21T05:44:41.372Z,0.0
2017-12-21T05:45:41.405Z,0.0
2017-12-21T05:46:41.448Z,0.0
2017-12-21T05:47:41.166Z,0.0
2017-12-21T05:48:41.360Z,0.0
2017-12-21T05:49:41.445Z,0.0
2017-12-21T05:50:41.226Z,0.0
2017-12-21T05:51:41.751Z,0.0
2017-12-21T05:54:41.740Z,0.0
2017-12-21T05:55:41.686Z,0.0
2017-12-21T05:56:41.423Z,0.0
2017-12-21T05:57:41.261Z,0.0
2017-12-21T05:58:41.427Z,0.0
2017-12-21T05:59:41.456Z,0.0
2017-12-21T06:01:41.263Z,0.0
2017-12-21T06:03:41.233Z,0.0
2017-12-21T06:04:41.465Z,0.0
2017-12-21T06:05:41.760Z,0.0
2017-12-21T06:06:41.432Z,0.0
2017-12-21T06:07:41.772Z,0.0
2017-12-21T06:08:41.770Z,0.0
2017-12-21T06:09:41.450Z,0.0
2017-12-21T06:10:41.765Z,0.0
2017-12-21T06:11:41.691Z,0.2
2017-12-21T06:12:41.674Z,0.2
2017-12-21T06:13:41.243Z,0.0
2017-12-21T06:14:41.263Z,0.0
2017-12-21T06:16:41.715Z,0.0
2017-12-21T06:17:41.257Z,0.0
2017-12-21T06:18:41.561Z,0.2
2017-12-21T06:19:41.504Z,0.2
2017-12-21T06:20:41.715Z,0.2
2017-12-21T06:21:41.258Z,0.0
2017-12-21T06:22:41.457Z,0.0
2017-12-21T06:23:41.472Z,0.0
2017-12-21T06:24:41.754Z,0.0
2017-12-21T06:25:41.733Z,0.0
2017-12-21T06:26:41.247Z,0.0
2017-12-21T06:27:41.438Z,0.0
2017-12-21T06:28:41.473Z,0.0
2017-12-21T06:29:41.240Z,0.0
2017-12-21T06:30:41.723Z,0.0
2017-12-21T06:31:41.717Z,0.2
2017-12-21T06:32:41.771Z,0.2
2017-12-21T06:33:41.537Z,0.2
2017-12-21T06:34:41.528Z,0.0
2017-12-21T06:35:41.584Z,0.0
2017-12-21T06:36:41.802Z,0.0
2017-12-21T06:37:41.743Z,0.0
2017-12-21T06:38:41.330Z,0.0
2017-12-21T06:39:41.520Z,0.0
2017-12-21T06:40:41.764Z,0.0
2017-12-21T06:41:41.316Z,0.0
2017-12-21T06:42:41.277Z,0.0
2017-12-21T06:43:41.350Z,0.0
2017-12-21T06:44:41.806Z,0.5
2017-12-21T06:45:41.786Z,0.5
2017-12-21T06:46:41.388Z,0.0
2017-12-21T06:47:41.547Z,0.0
2017-12-21T06:48:41.339Z,0.0
2017-12-21T06:49:41.535Z,0.0
2017-12-21T06:50:41.785Z,0.0
2017-12-21T06:51:41.350Z,0.0
2017-12-21T06:52:41.359Z,0.0
2017-12-21T06:53:41.797Z,0.0
2017-12-21T06:54:41.296Z,0.0
2017-12-21T06:55:41.410Z,0.0
2017-12-21T06:56:41.835Z,0.8
2017-12-21T06:57:41.542Z,0.8
2017-12-21T06:58:41.568Z,0.8
2017-12-21T06:59:41.573Z,2.5
2017-12-21T07:00:41.555Z,2.5
2017-12-21T07:01:41.804Z,1.3
2017-12-21T07:02:41.599Z,1.3
2017-12-21T07:03:41.574Z,1.3
2017-12-21T07:05:41.585Z,2.5
2017-12-21T07:06:41.366Z,2.5
2017-12-21T07:07:42.942Z,3.0
2017-12-21T07:08:42.079Z,3.0
2017-12-21T07:09:41.647Z,3.3
2017-12-21T07:10:41.665Z,3.3
2017-12-21T07:11:41.919Z,3.3
2017-12-21T07:12:41.440Z,2.2
2017-12-21T07:13:42.019Z,2.2
2017-12-21T07:14:41.848Z,2.2
2017-12-21T07:15:41.759Z,2.2
2017-12-21T07:16:41.680Z,2.2
2017-12-21T07:17:44.420Z,2.7
2017-12-21T07:18:41.432Z,2.7
2017-12-21T07:19:41.632Z,1.3
2017-12-21T07:20:41.888Z,1.3
2017-12-21T07:21:41.636Z,1.3
2017-12-21T07:22:41.576Z,2.2
2017-12-21T07:23:41.597Z,2.2
2017-12-21T07:24:41.660Z,1.9
2017-12-21T07:25:41.610Z,1.9
2017-12-21T07:26:41.480Z,1.9
2017-12-21T07:27:41.622Z,0.8
2017-12-21T07:28:41.855Z,0.8
2017-12-21T07:29:41.703Z,0.8
2017-12-21T07:30:41.624Z,0.8
2017-12-21T07:32:41.741Z,2.5
2017-12-21T07:33:41.901Z,2.5
2017-12-21T07:34:41.648Z,2.5
2017-12-21T07:35:41.642Z,18.0
2017-12-21T07:36:41.629Z,18.0
2017-12-21T07:37:41.614Z,3.0
2017-12-21T07:38:41.939Z,3.0
2017-12-21T07:39:41.506Z,3.0
2017-12-21T07:40:41.454Z,2.2
2017-12-21T07:41:41.731Z,2.2
2017-12-21T07:42:41.747Z,1.3
2017-12-21T07:43:41.698Z,1.3
2017-12-21T07:45:41.990Z,1.6
2017-12-21T07:46:41.417Z,1.6
2017-12-21T07:47:41.911Z,1.9
2017-12-21T07:48:41.649Z,1.9
2017-12-21T07:49:41.463Z,1.9
2017-12-21T07:50:41.479Z,4.7
2017-12-21T07:51:41.517Z,4.7
2017-12-21T07:52:41.680Z,3.0
2017-12-21T07:53:41.727Z,3.0
2017-12-21T07:54:41.991Z,3.0
2017-12-21T07:56:41.744Z,3.3
2017-12-21T07:57:41.930Z,2.2
2017-12-21T07:58:42.129Z,2.2
2017-12-21T07:59:41.731Z,2.2
2017-12-21T08:00:41.980Z,13.8
2017-12-21T08:01:41.718Z,13.8
2017-12-21T08:02:42.041Z,1.9
2017-12-21T08:03:41.960Z,1.9
2017-12-21T08:04:41.981Z,1.9
2017-12-21T08:05:41.700Z,3.6
2017-12-21T08:06:41.695Z,3.6
2017-12-21T08:07:41.714Z,3.6
2017-12-21T08:08:41.487Z,2.2
2017-12-21T08:09:41.615Z,2.2
2017-12-21T08:10:41.965Z,2.2
2017-12-21T08:11:41.688Z,2.2
2017-12-21T08:12:42.031Z,2.2
2017-12-21T08:13:41.683Z,1.9
2017-12-21T08:14:41.492Z,1.9
2017-12-21T08:15:41.490Z,2.5
2017-12-21T08:16:41.673Z,2.5
2017-12-21T08:17:41.556Z,2.5
2017-12-21T08:18:41.724Z,3.0
2017-12-21T08:20:41.732Z,2.7
2017-12-21T08:21:41.748Z,2.7
2017-12-21T08:22:41.693Z,2.7
2017-12-21T08:23:41.974Z,1.1
2017-12-21T08:24:41.988Z,1.1
2017-12-21T08:25:41.744Z,2.7
2017-12-21T08:26:41.740Z,2.7
2017-12-21T08:27:41.521Z,2.7
2017-12-21T08:28:41.719Z,9.7
2017-12-21T08:29:42.036Z,9.7
2017-12-21T08:31:41.522Z,18.0
2017-12-21T08:32:41.806Z,18.0
2017-12-21T08:34:42.000Z,3.0
2017-12-21T08:35:41.731Z,3.0
2017-12-21T08:36:41.771Z,4.1
2017-12-21T08:37:41.995Z,4.1
2017-12-21T08:38:41.785Z,3.6
2017-12-21T08:39:42.006Z,3.6
2017-12-21T08:40:41.572Z,3.6
2017-12-21T08:41:41.764Z,3.8
2017-12-21T08:42:41.757Z,3.8
2017-12-21T08:43:41.771Z,1.3
2017-12-21T08:44:41.832Z,1.3
2017-12-21T08:45:41.745Z,1.3
2017-12-21T08:46:41.836Z,3.0
2017-12-21T08:47:41.761Z,3.0
2017-12-21T08:48:41.753Z,3.0
2017-12-21T08:49:41.800Z,3.0
2017-12-21T08:50:42.115Z,3.0
2017-12-21T08:51:41.645Z,3.0
2017-12-21T08:52:42.111Z,3.0
2017-12-21T08:53:41.915Z,20.8
2017-12-21T08:54:42.064Z,20.8
2017-12-21T08:55:42.076Z,20.8
2017-12-21T08:56:42.025Z,6.9
2017-12-21T08:57:41.545Z,6.9
2017-12-21T08:58:41.794Z,5.0
2017-12-21T08:59:41.735Z,5.0
2017-12-21T09:00:41.790Z,5.0
2017-12-21T09:01:43.047Z,4.4
2017-12-21T09:02:41.593Z,4.4
2017-12-21T09:04:41.834Z,4.7
2017-12-21T09:05:41.893Z,4.7
2017-12-21T09:06:42.141Z,5.2
2017-12-21T09:07:41.632Z,5.2
2017-12-21T09:08:42.083Z,5.2
2017-12-21T09:09:41.616Z,6.3
2017-12-21T09:10:41.604Z,6.3
2017-12-21T09:11:41.904Z,4.7
2017-12-21T09:12:41.623Z,4.7
2017-12-21T09:13:41.808Z,4.7
2017-12-21T09:14:42.077Z,19.7
2017-12-21T09:15:42.109Z,19.7
2017-12-21T09:16:41.625Z,4.4
2017-12-21T09:18:41.626Z,4.4
2017-12-21T09:19:41.844Z,3.8
2017-12-21T09:20:42.156Z,3.8
2017-12-21T09:22:42.117Z,22.7
2017-12-21T09:23:41.949Z,22.7
2017-12-21T09:24:41.627Z,5.2
2017-12-21T09:25:41.606Z,5.2
2017-12-21T09:26:41.871Z,5.5
2017-12-21T09:27:41.830Z,5.5
2017-12-21T09:28:42.140Z,5.5
2017-12-21T09:29:42.127Z,6.1
2017-12-21T09:30:43.264Z,6.1
2017-12-21T09:31:41.641Z,6.1
2017-12-21T09:32:42.581Z,6.1
2017-12-21T09:33:42.464Z,6.1
2017-12-21T09:34:41.848Z,5.5
2017-12-21T09:35:42.554Z,5.5
2017-12-21T09:36:41.995Z,5.5
2017-12-21T09:37:41.932Z,3.8
2017-12-21T09:39:41.840Z,25.8
2017-12-21T09:40:41.708Z,25.8
2017-12-21T09:42:41.635Z,4.1
2017-12-21T09:44:42.171Z,5.8
2017-12-21T09:45:41.855Z,5.8
2017-12-21T09:46:41.876Z,5.8
2017-12-21T09:47:41.672Z,4.7
2017-12-21T09:48:41.676Z,4.7
2017-12-21T09:50:41.651Z,4.4
2017-12-21T09:51:41.847Z,4.4
2017-12-21T09:52:41.675Z,2.7
2017-12-21T09:53:41.881Z,2.7
2017-12-21T09:54:41.701Z,2.7
2017-12-21T09:55:41.979Z,2.7
2017-12-21T09:56:41.699Z,2.7
2017-12-21T09:57:41.677Z,4.4
2017-12-21T09:58:41.902Z,4.4
2017-12-21T09:59:43.157Z,4.4
2017-12-21T10:00:41.799Z,4.4
2017-12-21T10:02:41.941Z,5.0
2017-12-21T10:03:41.934Z,5.0
2017-12-21T10:05:41.865Z,4.7
2017-12-21T10:06:41.868Z,4.7
2017-12-21T10:07:42.158Z,4.4
2017-12-21T10:08:41.909Z,4.4
2017-12-21T10:09:41.873Z,4.4
2017-12-21T10:11:42.231Z,5.5
2017-12-21T10:14:41.924Z,5.5
2017-12-21T10:15:41.928Z,4.7
2017-12-21T10:16:41.952Z,4.7
2017-12-21T10:17:41.724Z,4.7
2017-12-21T10:18:41.905Z,4.7
2017-12-21T10:19:41.915Z,4.7
2017-12-21T10:20:42.311Z,5.8
2017-12-21T10:21:41.895Z,5.8
2017-12-21T10:22:42.006Z,4.1
2017-12-21T10:23:41.959Z,4.1
2017-12-21T10:24:41.977Z,4.1
2017-12-21T10:26:41.880Z,4.4
2017-12-21T10:27:41.728Z,6.1
2017-12-21T10:28:41.959Z,6.1
2017-12-21T10:29:42.203Z,6.1
2017-12-21T10:30:41.933Z,6.3
2017-12-21T10:31:41.941Z,6.3
2017-12-21T10:32:41.965Z,4.7
2017-12-21T10:33:41.961Z,4.7
2017-12-21T10:34:41.763Z,4.7
2017-12-21T10:35:41.922Z,5.0
2017-12-21T10:36:41.936Z,5.0
2017-12-21T10:37:42.017Z,5.0
2017-12-21T10:38:42.212Z,5.0
2017-12-21T10:39:42.193Z,5.0
2017-12-21T10:40:42.001Z,19.7
2017-12-21T10:42:42.268Z,19.7
2017-12-21T10:43:42.018Z,5.0
2017-12-21T10:44:41.988Z,5.0
2017-12-21T10:45:41.868Z,5.8
2017-12-21T10:46:41.929Z,5.8
2017-12-21T10:47:41.738Z,5.8
2017-12-21T10:48:41.976Z,5.8
2017-12-21T10:49:42.280Z,5.8
2017-12-21T10:50:42.238Z,5.8
2017-12-21T10:51:41.786Z,5.8
2017-12-21T10:52:41.996Z,5.8
2017-12-21T10:53:42.014Z,5.8
2017-12-21T10:54:42.293Z,5.8
2017-12-21T10:55:42.016Z,7.7
2017-12-21T10:56:42.299Z,7.7
2017-12-21T10:57:41.997Z,7.7
2017-12-21T10:59:42.304Z,4.7
2017-12-21T11:00:42.213Z,4.4
2017-12-21T11:01:41.977Z,4.4
2017-12-21T11:03:42.011Z,5.8
2017-12-21T11:04:41.804Z,5.8
2017-12-21T11:05:41.866Z,19.7
2017-12-21T11:06:42.029Z,19.7
2017-12-21T11:07:41.802Z,19.7
2017-12-21T11:09:42.081Z,5.8
2017-12-21T11:10:41.822Z,5.8
2017-12-21T11:11:42.312Z,4.1
2017-12-21T11:12:42.046Z,4.1
2017-12-21T11:13:42.070Z,3.6
2017-12-21T11:14:42.152Z,3.6
2017-12-21T11:16:42.081Z,5.8
2017-12-21T11:18:42.139Z,5.0
2017-12-21T11:19:42.324Z,5.0
2017-12-21T11:20:41.835Z,5.0
2017-12-21T11:21:42.496Z,5.8
2017-12-21T11:22:42.144Z,5.8
2017-12-21T11:23:42.399Z,4.1
2017-12-21T11:24:42.127Z,4.1
2017-12-21T11:25:42.157Z,4.1
2017-12-21T11:26:42.035Z,5.0
2017-12-21T11:27:42.362Z,5.0
2017-12-21T11:28:42.078Z,5.2
2017-12-21T11:29:42.072Z,5.2
2017-12-21T11:30:42.096Z,5.2
2017-12-21T11:31:42.345Z,4.7
2017-12-21T11:33:42.100Z,4.7
2017-12-21T11:34:42.508Z,4.7
2017-12-21T11:35:41.935Z,4.7
2017-12-21T11:36:41.876Z,5.0
2017-12-21T11:37:42.319Z,5.0
2017-12-21T11:38:41.940Z,5.0
2017-12-21T11:39:42.072Z,4.1
2017-12-21T11:40:42.306Z,4.1
2017-12-21T11:41:42.130Z,4.4
2017-12-21T11:42:42.150Z,4.4
2017-12-21T11:44:42.399Z,2.7
2017-12-21T11:45:42.090Z,2.7
2017-12-21T11:46:42.167Z,4.4
2017-12-21T11:47:42.145Z,4.4
2017-12-21T11:48:42.192Z,4.4
2017-12-21T11:49:41.876Z,3.3
2017-12-21T11:50:42.088Z,3.3
2017-12-21T11:51:42.539Z,3.8
2017-12-21T11:53:42.163Z,3.8
2017-12-21T11:54:42.412Z,4.7
2017-12-21T11:55:42.329Z,4.7
2017-12-21T11:56:42.198Z,5.8
2017-12-21T11:57:41.920Z,5.8
2017-12-21T11:58:42.131Z,5.8
2017-12-21T11:59:42.471Z,3.8
2017-12-21T12:00:41.937Z,3.8
2017-12-21T12:01:42.152Z,2.7
2017-12-21T12:02:42.157Z,2.7
2017-12-21T12:03:41.935Z,2.7
2017-12-21T12:04:42.015Z,3.6
2017-12-21T12:06:42.150Z,5.0
2017-12-21T12:07:42.196Z,5.0
2017-12-21T12:08:42.147Z,5.0
2017-12-21T12:09:42.451Z,2.2
2017-12-21T12:10:42.225Z,2.2
2017-12-21T12:12:42.512Z,5.2
2017-12-21T12:13:42.297Z,5.2
2017-12-21T12:14:42.610Z,5.2
2017-12-21T12:15:42.043Z,5.2
2017-12-21T12:16:42.182Z,5.2
2017-12-21T12:17:42.002Z,3.8
2017-12-21T12:19:42.424Z,4.4
2017-12-21T12:20:42.179Z,4.4
2017-12-21T12:21:42.238Z,4.4
2017-12-21T12:22:41.974Z,2.7
2017-12-21T12:23:42.178Z,2.7
2017-12-21T12:24:41.971Z,3.3
2017-12-21T12:25:41.955Z,3.3
2017-12-21T12:26:42.196Z,3.3
2017-12-21T12:27:42.150Z,5.0
2017-12-21T12:28:42.254Z,5.0
2017-12-21T12:29:42.207Z,3.0
2017-12-21T12:30:42.198Z,3.0
2017-12-21T12:31:42.466Z,3.0
2017-12-21T12:33:42.452Z,5.0
2017-12-21T12:34:42.434Z,5.8
2017-12-21T12:35:42.414Z,5.8
2017-12-21T12:36:42.188Z,5.8
2017-12-21T12:37:42.293Z,4.4
2017-12-21T12:38:42.013Z,4.4
2017-12-21T12:39:42.225Z,4.4
2017-12-21T12:40:42.202Z,4.1
2017-12-21T12:41:42.188Z,4.1
2017-12-21T12:42:42.192Z,4.1
2017-12-21T12:43:42.226Z,4.1
2017-12-21T12:44:41.994Z,4.1
2017-12-21T12:45:42.001Z,6.3
2017-12-21T12:46:42.203Z,6.3
2017-12-21T12:47:42.215Z,5.5
2017-12-21T12:48:42.217Z,5.5
2017-12-21T12:49:42.509Z,5.5
2017-12-21T12:51:42.198Z,7.5
2017-12-21T12:52:42.030Z,6.9
2017-12-21T12:53:42.236Z,6.9
2017-12-21T12:55:42.469Z,6.9
2017-12-21T12:56:42.203Z,6.9
2017-12-21T12:57:42.275Z,5.5
2017-12-21T12:58:42.219Z,5.5
2017-12-21T12:59:42.306Z,5.5
2017-12-21T13:00:42.525Z,5.8
2017-12-21T13:01:42.300Z,5.8
2017-12-21T13:02:42.063Z,6.3
2017-12-21T13:03:42.224Z,6.3
2017-12-21T13:04:42.312Z,6.3
2017-12-21T13:05:42.290Z,6.6
2017-12-21T13:06:42.324Z,6.6
2017-12-21T13:07:42.016Z,4.7
2017-12-21T13:08:42.490Z,4.7
2017-12-21T13:09:42.056Z,4.7
2017-12-21T13:10:42.486Z,4.7
2017-12-21T13:11:42.070Z,4.7
2017-12-21T13:12:42.515Z,4.7
2017-12-21T13:13:42.562Z,5.0
2017-12-21T13:14:42.275Z,5.0
2017-12-21T13:15:42.666Z,4.1
2017-12-21T13:16:42.097Z,4.1
2017-12-21T13:17:42.120Z,4.1
2017-12-21T13:19:42.598Z,4.4
2017-12-21T13:20:42.540Z,3.3
2017-12-21T13:21:42.691Z,3.3
2017-12-21T13:22:42.349Z,3.3
2017-12-21T13:23:42.296Z,3.0
2017-12-21T13:24:42.268Z,3.0
2017-12-21T13:25:42.089Z,4.4
2017-12-21T13:27:42.310Z,4.4
2017-12-21T13:28:42.295Z,18.8
2017-12-21T13:29:42.087Z,18.8
2017-12-21T13:30:42.282Z,5.0
2017-12-21T13:31:42.286Z,5.0
2017-12-21T13:32:42.097Z,5.0
2017-12-21T13:33:42.297Z,2.5
2017-12-21T13:34:42.303Z,2.5
2017-12-21T13:35:42.537Z,2.5
2017-12-21T13:36:42.334Z,2.5
2017-12-21T13:37:42.333Z,2.5
2017-12-21T13:38:42.304Z,3.3
2017-12-21T13:39:42.327Z,3.3
2017-12-21T13:40:42.299Z,3.3
2017-12-21T13:41:42.139Z,4.1
2017-12-21T13:42:42.371Z,4.1
2017-12-21T13:43:42.338Z,3.6
2017-12-21T13:44:42.084Z,3.6
2017-12-21T13:45:42.112Z,3.6
2017-12-21T13:46:42.369Z,3.6
2017-12-21T13:47:42.329Z,3.6
2017-12-21T13:48:42.371Z,7.2
2017-12-21T13:49:42.115Z,7.2
2017-12-21T13:50:42.785Z,7.2
2017-12-21T13:51:42.324Z,4.7
2017-12-21T13:52:42.769Z,4.7
2017-12-21T13:53:42.323Z,5.0
2017-12-21T13:54:42.384Z,5.0
2017-12-21T13:55:42.092Z,5.0
2017-12-21T13:56:42.387Z,3.0
2017-12-21T13:57:42.162Z,3.0
2017-12-21T13:58:42.240Z,4.4
2017-12-21T13:59:43.028Z,4.4
2017-12-21T14:00:42.686Z,4.4
2017-12-21T14:01:42.381Z,4.7
2017-12-21T14:02:42.375Z,4.7
2017-12-21T14:03:42.350Z,4.7
2017-12-21T14:04:42.410Z,4.7
2017-12-21T14:06:42.684Z,5.8
2017-12-21T14:07:42.175Z,5.8
2017-12-21T14:08:44.356Z,5.8
2017-12-21T14:09:42.581Z,5.8
2017-12-21T14:10:42.640Z,5.8
2017-12-21T14:11:42.171Z,4.1
2017-12-21T14:12:42.174Z,4.1
2017-12-21T14:14:42.411Z,4.1
2017-12-21T14:15:42.118Z,4.1
2017-12-21T14:16:42.364Z,4.1
2017-12-21T14:17:42.394Z,4.1
2017-12-21T14:18:42.161Z,4.1
2017-12-21T14:20:42.413Z,6.9
2017-12-21T14:21:42.361Z,4.1
2017-12-21T14:22:42.460Z,4.1
2017-12-21T14:23:42.147Z,4.1
2017-12-21T14:24:42.412Z,3.6
2017-12-21T14:25:42.393Z,3.6
2017-12-21T14:26:42.403Z,4.7
2017-12-21T14:27:42.359Z,4.7
2017-12-21T14:28:42.450Z,4.7
2017-12-21T14:29:42.382Z,2.7
2017-12-21T14:30:42.212Z,2.7
2017-12-21T14:31:42.657Z,3.3
2017-12-21T14:32:42.430Z,3.3
2017-12-21T14:33:42.242Z,3.3
2017-12-21T14:34:42.238Z,3.6
2017-12-21T14:35:42.365Z,3.6
2017-12-21T14:36:42.276Z,3.6
2017-12-21T14:37:42.370Z,3.6
2017-12-21T14:38:42.234Z,3.6
2017-12-21T14:39:42.170Z,3.3
2017-12-21T14:41:42.720Z,3.3
2017-12-21T14:42:42.720Z,6.3
2017-12-21T14:43:42.587Z,6.3
2017-12-21T14:44:42.736Z,21.3
2017-12-21T14:45:42.370Z,21.3
2017-12-21T14:46:42.582Z,21.3
2017-12-21T14:47:42.444Z,5.2
2017-12-21T14:48:42.526Z,5.2
2017-12-21T14:49:42.404Z,4.7
2017-12-21T14:50:42.727Z,4.7